world map with HUQ marked

HUQ - Airport

This information may not be accurate or current and is not valid for navigation or flight planning. No warranty of fitness for any purpose is made or implied.

flag of Libyan Arab Jamahiriya (Libya)

Donate via PayPal

Additional information is available on the NEW Great Circle Mapper

Location
City:  Houn, Libyan Arab Jamahiriya (Libya)
ICAO / IATA:HLON / HUQ

Details
Type:Airport (Aerodrome, Airfield)
Latitude:29°06'36"N (29.110106)
Longitude:15°57'56"E (15.965567)
Datum:WGS 1984
Elevation:919 ft (280 m)
Runways:1
Longest:5905 × 98 ft (1800 × 30 m)

Time
Timezone:UTC+1 (DST+2)

Weather
TAF:HLON  040500Z 0406/0506 33012KT 8000 NSC BECMG 0418/0420 27010KT FEW040 SCT090 PROB30 TWEMPO 0418/0424 5000 SHRA BKN035 BKN080

Related Locations
Nearby:
Farthest:RAR: 11828 mi / 19035 km
Avarua [Rarotonga Intl], Rarotonga Island, CK

Find:

   beyond  
but within

Other Information
Maps:
Sources:

  


 


Great Circle Mapper   Great Circle Mapper
Great Circle Mapper FAQ   Great Circle Mapper FAQ
  Karl's Home Page
KLSē   KLSē Home
   GC on Facebook
Airlines of the World   Airlines of the World
Donate via PayPal


Copyright © 2004-2019, Karl L. Swartz. All rights reserved.
All trademarks mentioned herein belong to their respective owners.

Please see credits for attribution and copyright information.

Karl Swartz <karl@kls2.com>
  Powered by FreeBSD
Valid HTML 4.01!
Labeled with ICRA
hCard Microformat
Geo Microformat